Time;durP1;ratioP1;P1;durP2;ratioP2;P2;SDS_P1;SDS_P2;PMS_P1;PMS_P2;Temp;Humidity;BMP_temperature;BMP_pressure;BME280_temperature;BME280_humidity;BME280_pressure;Samples;Min_cycle;Max_cycle;Signal;HPM_P1;HPM_P2
2022/12/17 13:11:41;;;;;;;154.57;58.27;;;;;;;-3.24;100.00;99594.67;4296804;81;21094;-88
2022/12/17 13:18:03;;;;;;;173.33;66.57;;;;;;;-3.29;100.00;99598.72;4304878;81;20951;-88
2022/12/17 13:24:11;;;;;;;154.00;59.07;;;;;;;-3.29;100.00;99615.57;4292763;81;21062;-88
2022/12/17 13:30:35;;;;;;;164.67;63.10;;;;;;;-3.33;100.00;99608.34;4306527;81;21554;-88
2022/12/17 13:37:19;;;;;;;171.67;65.07;;;;;;;-3.29;100.00;99623.60;4297492;81;21625;-89
2022/12/17 13:43:23;;;;;;;192.33;65.60;;;;;;;-3.31;100.00;99627.63;4304624;80;21081;-89
2022/12/17 13:49:28;;;;;;;170.23;60.13;;;;;;;-3.30;100.00;99645.29;4311733;81;21079;-89
2022/12/17 13:55:30;;;;;;;183.70;61.90;;;;;;;-3.30;100.00;99647.97;4307053;81;20958;-89
2022/12/17 14:01:32;;;;;;;162.10;60.70;;;;;;;-3.34;100.00;99665.13;4310186;81;20963;-89
2022/12/17 14:07:36;;;;;;;174.03;60.03;;;;;;;-3.37;100.00;99668.87;4302077;81;20967;-88
2022/12/17 14:13:38;;;;;;;169.57;59.47;;;;;;;-3.42;100.00;99680.38;4296852;81;20950;-89
2022/12/17 14:19:39;;;;;;;158.30;57.63;;;;;;;-3.44;100.00;99699.10;4304859;81;20994;-88
2022/12/17 14:25:43;;;;;;;162.50;61.20;;;;;;;-3.45;100.00;99711.70;4303657;81;20998;-88
2022/12/17 14:32:01;;;;;;;174.30;61.63;;;;;;;-3.46;100.00;99723.45;4296972;81;21130;-89
2022/12/17 14:38:03;;;;;;;177.47;61.37;;;;;;;-3.46;100.00;99731.48;4252645;82;21030;-89
2022/12/17 14:44:05;;;;;;;189.23;64.60;;;;;;;-3.45;100.00;99739.81;4225778;83;22002;-88
2022/12/17 14:50:19;;;;;;;176.27;60.43;;;;;;;-3.45;100.00;99739.00;4231741;83;20999;-88
2022/12/17 14:56:22;;;;;;;177.90;63.03;;;;;;;-3.45;100.00;99757.20;4158158;83;20994;-88
2022/12/17 15:02:27;;;;;;;173.80;60.77;;;;;;;-3.48;100.00;99760.94;4168982;83;21006;-89
2022/12/17 15:08:37;;;;;;;195.87;64.00;;;;;;;-3.49;100.00;99784.22;4143274;83;21063;-88
2022/12/17 15:14:38;;;;;;;191.67;63.60;;;;;;;-3.47;100.00;99783.95;4264821;82;21008;-89
2022/12/17 15:20:40;;;;;;;181.83;62.30;;;;;;;-3.48;100.00;99795.19;4256803;82;21389;-88
2022/12/17 15:26:56;;;;;;;202.40;70.47;;;;;;;-3.54;100.00;99793.56;4148827;83;21022;-89
2022/12/17 15:33:09;;;;;;;206.77;72.23;;;;;;;-3.52;100.00;99807.50;4242656;82;21070;-90
2022/12/17 15:39:13;;;;;;;212.33;70.40;;;;;;;-3.50;100.00;99811.25;4218781;81;21086;-88
2022/12/17 15:45:15;;;;;;;220.13;71.97;;;;;;;-3.50;100.00;99809.91;4215793;81;21061;-89
2022/12/17 15:51:19;;;;;;;211.63;70.77;;;;;;;-3.51;100.00;99819.02;4217583;83;21531;-88
2022/12/17 15:57:20;;;;;;;203.03;70.53;;;;;;;-3.51;100.00;99823.03;4226966;83;20982;-88
2022/12/17 16:03:23;;;;;;;218.27;71.63;;;;;;;-3.53;100.00;99832.66;4235566;83;21049;-88
2022/12/17 16:09:25;;;;;;;195.70;68.63;;;;;;;-3.50;100.00;99846.05;4228907;83;21073;-88
2022/12/17 16:15:27;;;;;;;193.50;65.27;;;;;;;-3.50;100.00;99846.86;4236527;83;21038;-89
2022/12/17 16:21:29;;;;;;;205.40;68.67;;;;;;;-3.52;100.00;99856.20;4211977;83;21050;-89
2022/12/17 16:27:34;;;;;;;201.67;69.60;;;;;;;-3.53;100.00;99863.45;4177634;81;22408;-89
2022/12/17 16:33:38;;;;;;;213.77;71.43;;;;;;;-3.51;100.00;99866.64;4224791;83;21634;-88
2022/12/17 16:39:40;;;;;;;208.60;73.63;;;;;;;-3.48;100.00;99887.53;4204143;83;20984;-89
2022/12/17 16:45:50;;;;;;;218.60;71.00;;;;;;;-3.54;100.00;99884.56;4253099;81;20962;-88
2022/12/17 16:51:54;;;;;;;223.03;78.07;;;;;;;-3.57;100.00;99885.64;4247335;81;21066;-88
2022/12/17 16:57:55;;;;;;;228.90;80.90;;;;;;;-3.60;100.00;99902.20;4256536;82;20994;-87
2022/12/17 17:03:59;;;;;;;226.37;76.97;;;;;;;-3.61;100.00;99900.08;4247882;82;21070;-89
2022/12/17 17:10:01;;;;;;;209.53;76.53;;;;;;;-3.60;100.00;99908.89;4247415;82;21025;-89
2022/12/17 17:16:03;;;;;;;218.70;76.87;;;;;;;-3.63;100.00;99918.25;4241101;81;21015;-89
2022/12/17 17:22:04;;;;;;;208.00;68.13;;;;;;;-3.64;100.00;99930.55;4217709;82;21563;-88
2022/12/17 17:28:06;;;;;;;226.77;79.57;;;;;;;-3.62;100.00;99941.27;4219075;82;21025;-90
2022/12/17 17:34:13;;;;;;;233.97;77.20;;;;;;;-3.63;100.00;99946.88;4238778;81;21093;-89
2022/12/17 17:40:15;;;;;;;221.77;75.97;;;;;;;-3.65;100.00;99965.87;4248597;82;21539;-89
2022/12/17 17:46:18;;;;;;;215.57;73.83;;;;;;;-3.65;100.00;99970.44;4241133;81;21070;-90
2022/12/17 17:52:20;;;;;;;219.00;74.47;;;;;;;-3.69;100.00;99980.03;4237401;82;21102;-89
2022/12/17 17:58:21;;;;;;;223.00;72.97;;;;;;;-3.70;100.00;99994.48;4239697;82;21069;-88
2022/12/17 18:04:23;;;;;;;199.57;68.67;;;;;;;-3.69;100.00;100010.80;4134921;81;10000017;-89
2022/12/17 18:10:24;;;;;;;199.73;68.80;;;;;;;-3.68;100.00;100001.17;4246500;82;21053;-89
2022/12/17 18:16:39;;;;;;;200.73;66.53;;;;;;;-3.69;100.00;100004.11;4236642;82;21000;-90
2022/12/17 18:22:41;;;;;;;200.93;69.07;;;;;;;-3.70;100.00;100012.69;4235933;82;20966;-89
2022/12/17 18:28:44;;;;;;;203.23;66.93;;;;;;;-3.70;100.00;100019.38;4147705;84;20987;-90
2022/12/17 18:34:45;;;;;;;180.97;60.07;;;;;;;-3.70;100.00;100022.58;4067992;86;21470;-90
2022/12/17 18:40:47;;;;;;;182.77;60.93;;;;;;;-3.72;100.00;100034.88;4141568;83;21944;-89
2022/12/17 18:46:49;;;;;;;166.63;50.17;;;;;;;-3.74;100.00;100046.88;4136980;84;21554;-88
2022/12/17 18:52:51;;;;;;;188.93;55.13;;;;;;;-3.73;100.00;100059.22;4148057;84;21027;-90
2022/12/17 18:58:56;;;;;;;178.13;52.87;;;;;;;-3.77;100.00;100074.16;4144823;84;21003;-90
2022/12/17 19:04:57;;;;;;;162.10;46.73;;;;;;;-3.78;100.00;100073.89;4020424;84;9999792;-90
2022/12/17 19:11:08;;;;;;;157.13;50.00;;;;;;;-3.81;100.00;100085.10;4149554;84;21063;-89
2022/12/17 19:17:09;;;;;;;179.80;48.90;;;;;;;-3.82;100.00;100090.19;4254477;81;21909;-91
2022/12/17 19:23:11;;;;;;;188.13;49.43;;;;;;;-3.80;100.00;100100.91;4241799;82;21583;-90
2022/12/17 19:29:15;;;;;;;179.43;52.57;;;;;;;-3.81;100.00;100111.34;4247218;81;21021;-90
2022/12/17 19:35:16;;;;;;;176.30;46.73;;;;;;;-3.84;100.00;100120.39;4241203;82;21089;-90
2022/12/17 19:41:19;;;;;;;163.60;44.10;;;;;;;-3.89;100.00;100131.86;4228601;82;21050;-90
2022/12/17 19:47:23;;;;;;;156.53;45.77;;;;;;;-3.91;100.00;100133.97;4221546;83;21065;-90
2022/12/17 19:53:26;;;;;;;137.60;42.20;;;;;;;-3.95;100.00;100136.89;4229980;83;20984;-89
2022/12/17 19:59:27;;;;;;;157.03;46.80;;;;;;;-3.99;100.00;100144.30;4209955;83;21508;-90
2022/12/17 20:05:29;;;;;;;139.53;42.23;;;;;;;-4.06;100.00;100145.05;4238153;83;21002;-89
2022/12/17 20:11:33;;;;;;;136.83;42.90;;;;;;;-4.08;100.00;100154.66;4235617;83;21022;-91
2022/12/17 20:17:34;;;;;;;162.80;45.20;;;;;;;-4.09;100.00;100166.44;4234280;83;21017;-90
2022/12/17 20:23:36;;;;;;;162.50;44.50;;;;;;;-4.09;100.00;100181.66;4230766;83;21570;-90
2022/12/17 20:29:37;;;;;;;153.50;46.50;;;;;;;-4.08;100.00;100200.65;4149171;84;21045;-90
2022/12/17 20:35:46;;;;;;;149.10;43.67;;;;;;;-4.10;100.00;100211.59;4271498;81;21042;-90
2022/12/17 20:41:46;;;;;;;119.27;34.50;;;;;;;-4.09;100.00;100218.58;4305149;80;21038;-91
2022/12/17 20:47:48;;;;;;;142.60;43.00;;;;;;;-4.11;100.00;100227.37;4301198;81;20997;-90
2022/12/17 20:53:55;;;;;;;167.57;47.10;;;;;;;-4.16;100.00;100236.67;4312833;81;21042;-90
2022/12/17 20:59:56;;;;;;;148.73;39.20;;;;;;;-4.19;100.00;100243.03;4312827;81;21083;-90
2022/12/17 21:06:14;;;;;;;139.40;41.37;;;;;;;-4.20;100.00;100254.28;4308901;81;21018;-90
2022/12/17 21:12:16;;;;;;;143.07;43.83;;;;;;;-4.22;100.00;100262.25;4303931;81;21434;-90
2022/12/17 21:18:21;;;;;;;145.50;42.67;;;;;;;-4.26;100.00;100271.28;4306106;81;21894;-89
2022/12/17 21:24:22;;;;;;;132.87;40.83;;;;;;;-4.26;100.00;100271.28;4316362;81;21518;-89
2022/12/17 21:30:24;;;;;;;130.17;39.53;;;;;;;-4.26;100.00;100285.20;4308663;81;21053;-90
2022/12/17 21:36:27;;;;;;;134.87;38.87;;;;;;;-4.29;100.00;100286.48;4291516;81;21531;-90
2022/12/17 21:48:52;;;;;;;122.43;37.57;;;;;;;-4.39;100.00;100306.42;4254510;81;21023;-91
2022/12/17 21:54:53;;;;;;;119.43;38.50;;;;;;;-4.42;100.00;100312.77;4247895;82;21054;-90
2022/12/17 22:00:54;;;;;;;122.67;36.97;;;;;;;-4.45;100.00;100327.97;4247083;81;20997;-91
2022/12/17 22:06:56;;;;;;;110.33;35.47;;;;;;;-4.47;100.00;100345.59;4245438;82;21701;-91
2022/12/17 22:19:24;;;;;;;105.33;32.87;;;;;;;-4.46;100.00;100349.08;4237897;82;21032;-91
2022/12/17 22:25:25;;;;;;;97.80;31.60;;;;;;;-4.45;100.00;100358.19;4259061;82;21514;-92
2022/12/17 22:37:47;;;;;;;111.17;32.60;;;;;;;-4.45;100.00;100368.88;4236581;81;21142;-92
2022/12/17 22:43:48;;;;;;;116.30;35.13;;;;;;;-4.47;100.00;100372.83;4229799;83;21057;-92
2022/12/17 22:49:49;;;;;;;106.17;32.50;;;;;;;-4.52;100.00;100377.58;4232255;83;21038;-91
2022/12/17 22:55:51;;;;;;;99.77;33.37;;;;;;;-4.51;100.00;100378.39;4239820;83;21019;-92
2022/12/17 23:01:53;;;;;;;104.97;35.13;;;;;;;-4.58;100.00;100387.91;4240958;81;21047;-91
2022/12/17 23:07:55;;;;;;;115.70;35.53;;;;;;;-4.61;100.00;100393.73;4244765;83;22172;-91
2022/12/17 23:13:57;;;;;;;108.13;33.33;;;;;;;-4.59;100.00;100401.52;4236132;83;21042;-91
2022/12/17 23:20:00;;;;;;;112.10;36.07;;;;;;;-4.57;100.00;100412.23;4243580;81;21038;-91
2022/12/17 23:26:14;;;;;;;106.43;32.50;;;;;;;-4.57;100.00;100420.80;4151714;83;20983;-91
2022/12/17 23:32:16;;;;;;;111.20;34.03;;;;;;;-4.58;100.00;100421.31;4097560;85;20976;-91
2022/12/17 23:38:18;;;;;;;101.57;32.27;;;;;;;-4.57;100.00;100425.59;4084973;86;21687;-91
2022/12/17 23:44:21;;;;;;;99.57;31.97;;;;;;;-4.58;100.00;100431.18;4245118;82;21062;-90
2022/12/17 23:50:26;;;;;;;89.03;30.73;;;;;;;-4.62;100.00;100437.55;4142659;83;21540;-91
2022/12/17 23:56:27;;;;;;;102.70;33.93;;;;;;;-4.62;100.00;100458.11;4089658;86;21106;-91
